sensor_id;sensor_type;location;lat;lon;timestamp;temperature;humidity
15749;DHT22;7976;52.526;13.326;2024-03-06T00:00:17;4.50;99.90
15749;DHT22;7976;52.526;13.326;2024-03-06T00:02:44;4.50;99.90
15749;DHT22;7976;52.526;13.326;2024-03-06T00:05:12;4.50;99.90
15749;DHT22;7976;52.526;13.326;2024-03-06T00:07:39;4.50;99.90
15749;DHT22;7976;52.526;13.326;2024-03-06T00:10:07;4.50;99.90
15749;DHT22;7976;52.526;13.326;2024-03-06T00:12:36;4.50;99.90
15749;DHT22;7976;52.526;13.326;2024-03-06T00:15:03;4.50;99.90
15749;DHT22;7976;52.526;13.326;2024-03-06T00:17:31;4.40;99.90
15749;DHT22;7976;52.526;13.326;2024-03-06T00:19:57;4.40;99.90
15749;DHT22;7976;52.526;13.326;2024-03-06T00:22:24;4.50;99.90
15749;DHT22;7976;52.526;13.326;2024-03-06T00:24:51;4.40;99.90
15749;DHT22;7976;52.526;13.326;2024-03-06T00:27:18;4.40;99.90
15749;DHT22;7976;52.526;13.326;2024-03-06T00:29:46;4.40;99.90
15749;DHT22;7976;52.526;13.326;2024-03-06T00:32:14;4.40;99.90
15749;DHT22;7976;52.526;13.326;2024-03-06T00:34:41;4.50;99.90
15749;DHT22;7976;52.526;13.326;2024-03-06T00:37:07;4.40;99.90
15749;DHT22;7976;52.526;13.326;2024-03-06T00:39:35;4.50;99.90
15749;DHT22;7976;52.526;13.326;2024-03-06T00:42:02;4.40;99.90
15749;DHT22;7976;52.526;13.326;2024-03-06T00:44:29;4.40;99.90
15749;DHT22;7976;52.526;13.326;2024-03-06T00:46:59;4.40;99.90
15749;DHT22;7976;52.526;13.326;2024-03-06T00:49:26;4.40;99.90
15749;DHT22;7976;52.526;13.326;2024-03-06T00:51:53;4.40;99.90
15749;DHT22;7976;52.526;13.326;2024-03-06T00:54:20;4.40;99.90
15749;DHT22;7976;52.526;13.326;2024-03-06T00:56:46;4.40;99.90
15749;DHT22;7976;52.526;13.326;2024-03-06T00:59:13;4.40;99.90
15749;DHT22;7976;52.526;13.326;2024-03-06T01:01:40;4.40;99.90
15749;DHT22;7976;52.526;13.326;2024-03-06T01:04:09;4.40;99.90
15749;DHT22;7976;52.526;13.326;2024-03-06T01:06:35;4.40;99.90
15749;DHT22;7976;52.526;13.326;2024-03-06T01:09:02;4.30;99.90
15749;DHT22;7976;52.526;13.326;2024-03-06T01:11:29;4.40;99.90
15749;DHT22;7976;52.526;13.326;2024-03-06T01:13:56;4.40;99.90
15749;DHT22;7976;52.526;13.326;2024-03-06T01:16:23;4.40;99.90
15749;DHT22;7976;52.526;13.326;2024-03-06T01:18:50;4.40;99.90
15749;DHT22;7976;52.526;13.326;2024-03-06T01:21:18;4.30;99.90
15749;DHT22;7976;52.526;13.326;2024-03-06T01:23:45;4.30;99.90
15749;DHT22;7976;52.526;13.326;2024-03-06T01:26:12;4.30;99.90
15749;DHT22;7976;52.526;13.326;2024-03-06T01:28:39;4.30;99.90
15749;DHT22;7976;52.526;13.326;2024-03-06T01:31:06;4.30;99.90
15749;DHT22;7976;52.526;13.326;2024-03-06T01:33:34;4.20;99.90
15749;DHT22;7976;52.526;13.326;2024-03-06T01:36:01;4.30;99.90
15749;DHT22;7976;52.526;13.326;2024-03-06T01:38:29;4.30;99.90
15749;DHT22;7976;52.526;13.326;2024-03-06T01:40:57;4.20;99.90
15749;DHT22;7976;52.526;13.326;2024-03-06T01:43:25;4.20;99.90
15749;DHT22;7976;52.526;13.326;2024-03-06T01:45:52;4.20;99.90
15749;DHT22;7976;52.526;13.326;2024-03-06T01:48:22;4.20;99.90
15749;DHT22;7976;52.526;13.326;2024-03-06T01:50:53;4.20;99.90
15749;DHT22;7976;52.526;13.326;2024-03-06T01:53:23;4.20;99.90
15749;DHT22;7976;52.526;13.326;2024-03-06T01:55:52;4.20;99.90
15749;DHT22;7976;52.526;13.326;2024-03-06T01:58:19;4.20;99.90
15749;DHT22;7976;52.526;13.326;2024-03-06T02:00:49;4.20;99.90
15749;DHT22;7976;52.526;13.326;2024-03-06T02:03:17;4.20;99.90
15749;DHT22;7976;52.526;13.326;2024-03-06T02:05:45;4.10;99.90
15749;DHT22;7976;52.526;13.326;2024-03-06T02:08:14;4.10;99.90
15749;DHT22;7976;52.526;13.326;2024-03-06T02:10:42;4.10;99.90
15749;DHT22;7976;52.526;13.326;2024-03-06T02:13:12;4.10;99.90
15749;DHT22;7976;52.526;13.326;2024-03-06T02:15:40;4.00;99.90
15749;DHT22;7976;52.526;13.326;2024-03-06T02:18:07;4.00;99.90
15749;DHT22;7976;52.526;13.326;2024-03-06T02:20:37;4.00;99.90
15749;DHT22;7976;52.526;13.326;2024-03-06T02:23:05;4.00;99.90
15749;DHT22;7976;52.526;13.326;2024-03-06T02:25:33;4.00;99.90
15749;DHT22;7976;52.526;13.326;2024-03-06T02:28:00;4.00;99.90
15749;DHT22;7976;52.526;13.326;2024-03-06T02:30:27;4.00;99.90
15749;DHT22;7976;52.526;13.326;2024-03-06T02:32:56;4.00;99.90
15749;DHT22;7976;52.526;13.326;2024-03-06T02:35:23;4.00;99.90
15749;DHT22;7976;52.526;13.326;2024-03-06T02:37:51;4.00;99.90
15749;DHT22;7976;52.526;13.326;2024-03-06T02:40:18;4.00;99.90
15749;DHT22;7976;52.526;13.326;2024-03-06T02:42:46;4.00;99.90
15749;DHT22;7976;52.526;13.326;2024-03-06T02:45:13;4.00;99.90
15749;DHT22;7976;52.526;13.326;2024-03-06T02:47:40;4.00;99.90
15749;DHT22;7976;52.526;13.326;2024-03-06T02:50:07;4.00;99.90
15749;DHT22;7976;52.526;13.326;2024-03-06T02:52:35;4.00;99.90
15749;DHT22;7976;52.526;13.326;2024-03-06T02:55:04;4.00;99.90
15749;DHT22;7976;52.526;13.326;2024-03-06T02:57:35;3.90;99.90
15749;DHT22;7976;52.526;13.326;2024-03-06T03:00:06;3.90;99.90
15749;DHT22;7976;52.526;13.326;2024-03-06T03:02:38;3.90;99.90
15749;DHT22;7976;52.526;13.326;2024-03-06T03:05:06;3.90;99.90
15749;DHT22;7976;52.526;13.326;2024-03-06T03:07:33;3.90;99.90
15749;DHT22;7976;52.526;13.326;2024-03-06T03:10:00;3.80;99.90
15749;DHT22;7976;52.526;13.326;2024-03-06T03:12:28;3.90;99.90
15749;DHT22;7976;52.526;13.326;2024-03-06T03:14:55;3.80;99.90
15749;DHT22;7976;52.526;13.326;2024-03-06T03:17:22;3.80;99.90
15749;DHT22;7976;52.526;13.326;2024-03-06T03:19:49;3.80;99.90
15749;DHT22;7976;52.526;13.326;2024-03-06T03:22:16;3.80;99.90
15749;DHT22;7976;52.526;13.326;2024-03-06T03:24:43;3.70;99.90
15749;DHT22;7976;52.526;13.326;2024-03-06T03:27:10;3.70;99.90
15749;DHT22;7976;52.526;13.326;2024-03-06T03:29:38;3.70;99.90
15749;DHT22;7976;52.526;13.326;2024-03-06T03:32:06;3.70;99.90
15749;DHT22;7976;52.526;13.326;2024-03-06T03:34:34;3.80;99.90
15749;DHT22;7976;52.526;13.326;2024-03-06T03:37:01;3.70;99.90
15749;DHT22;7976;52.526;13.326;2024-03-06T03:39:28;3.70;99.90
15749;DHT22;7976;52.526;13.326;2024-03-06T03:41:55;3.70;99.90
15749;DHT22;7976;52.526;13.326;2024-03-06T03:44:22;3.70;99.90
15749;DHT22;7976;52.526;13.326;2024-03-06T03:46:50;3.70;99.90
15749;DHT22;7976;52.526;13.326;2024-03-06T03:49:17;3.70;99.90
15749;DHT22;7976;52.526;13.326;2024-03-06T03:51:44;3.70;99.90
15749;DHT22;7976;52.526;13.326;2024-03-06T03:54:11;3.70;99.90
15749;DHT22;7976;52.526;13.326;2024-03-06T03:56:38;3.70;99.90
15749;DHT22;7976;52.526;13.326;2024-03-06T03:59:05;3.70;99.90
15749;DHT22;7976;52.526;13.326;2024-03-06T04:01:32;3.70;99.90
15749;DHT22;7976;52.526;13.326;2024-03-06T04:04:01;3.70;99.90
15749;DHT22;7976;52.526;13.326;2024-03-06T04:06:28;3.70;99.90
15749;DHT22;7976;52.526;13.326;2024-03-06T04:08:54;3.70;99.90
15749;DHT22;7976;52.526;13.326;2024-03-06T04:11:21;3.60;99.90
15749;DHT22;7976;52.526;13.326;2024-03-06T04:13:48;3.60;99.90
15749;DHT22;7976;52.526;13.326;2024-03-06T04:16:16;3.60;99.90
15749;DHT22;7976;52.526;13.326;2024-03-06T04:18:44;3.60;99.90
15749;DHT22;7976;52.526;13.326;2024-03-06T04:21:13;3.60;99.90
15749;DHT22;7976;52.526;13.326;2024-03-06T04:23:40;3.60;99.90
15749;DHT22;7976;52.526;13.326;2024-03-06T04:26:07;3.60;99.90
15749;DHT22;7976;52.526;13.326;2024-03-06T04:28:34;3.50;99.90
15749;DHT22;7976;52.526;13.326;2024-03-06T04:31:01;3.50;99.90
15749;DHT22;7976;52.526;13.326;2024-03-06T04:33:28;3.50;99.90
15749;DHT22;7976;52.526;13.326;2024-03-06T04:35:55;3.50;99.90
15749;DHT22;7976;52.526;13.326;2024-03-06T04:38:24;3.50;99.90
15749;DHT22;7976;52.526;13.326;2024-03-06T04:40:50;3.50;99.90
15749;DHT22;7976;52.526;13.326;2024-03-06T04:43:17;3.50;99.90
15749;DHT22;7976;52.526;13.326;2024-03-06T04:45:45;3.60;99.90
15749;DHT22;7976;52.526;13.326;2024-03-06T04:48:12;3.50;99.90
15749;DHT22;7976;52.526;13.326;2024-03-06T04:50:39;3.50;99.90
15749;DHT22;7976;52.526;13.326;2024-03-06T04:53:06;3.50;99.90
15749;DHT22;7976;52.526;13.326;2024-03-06T04:55:35;3.50;99.90
15749;DHT22;7976;52.526;13.326;2024-03-06T04:58:02;3.50;99.90
15749;DHT22;7976;52.526;13.326;2024-03-06T05:00:29;3.50;99.90
15749;DHT22;7976;52.526;13.326;2024-03-06T05:02:56;3.40;99.90
15749;DHT22;7976;52.526;13.326;2024-03-06T05:05:24;3.40;99.90
15749;DHT22;7976;52.526;13.326;2024-03-06T05:07:51;3.40;99.90
15749;DHT22;7976;52.526;13.326;2024-03-06T05:10:18;3.50;99.90
15749;DHT22;7976;52.526;13.326;2024-03-06T05:12:46;3.40;99.90
15749;DHT22;7976;52.526;13.326;2024-03-06T05:15:14;3.40;99.90
15749;DHT22;7976;52.526;13.326;2024-03-06T05:17:41;3.40;99.90
15749;DHT22;7976;52.526;13.326;2024-03-06T05:20:09;3.40;99.90
15749;DHT22;7976;52.526;13.326;2024-03-06T05:22:37;3.50;99.90
15749;DHT22;7976;52.526;13.326;2024-03-06T05:25:04;3.40;99.90
15749;DHT22;7976;52.526;13.326;2024-03-06T05:27:32;3.40;99.90
15749;DHT22;7976;52.526;13.326;2024-03-06T05:30:00;3.30;99.90
15749;DHT22;7976;52.526;13.326;2024-03-06T05:32:29;3.40;99.90
15749;DHT22;7976;52.526;13.326;2024-03-06T05:34:56;3.40;99.90
15749;DHT22;7976;52.526;13.326;2024-03-06T05:37:24;3.30;99.90
15749;DHT22;7976;52.526;13.326;2024-03-06T05:39:51;3.30;99.90
15749;DHT22;7976;52.526;13.326;2024-03-06T05:42:19;3.30;99.90
15749;DHT22;7976;52.526;13.326;2024-03-06T05:44:46;3.20;99.90
15749;DHT22;7976;52.526;13.326;2024-03-06T05:47:15;3.20;99.90
15749;DHT22;7976;52.526;13.326;2024-03-06T05:49:42;3.20;99.90
15749;DHT22;7976;52.526;13.326;2024-03-06T05:52:09;3.20;99.90
15749;DHT22;7976;52.526;13.326;2024-03-06T05:54:36;3.20;99.90
15749;DHT22;7976;52.526;13.326;2024-03-06T05:57:03;3.20;99.90
15749;DHT22;7976;52.526;13.326;2024-03-06T05:59:30;3.20;99.90
15749;DHT22;7976;52.526;13.326;2024-03-06T06:01:57;3.20;99.90
15749;DHT22;7976;52.526;13.326;2024-03-06T06:04:25;3.20;99.90
15749;DHT22;7976;52.526;13.326;2024-03-06T06:06:52;3.20;99.90
15749;DHT22;7976;52.526;13.326;2024-03-06T06:09:19;3.20;99.90
15749;DHT22;7976;52.526;13.326;2024-03-06T06:11:45;3.20;99.90
15749;DHT22;7976;52.526;13.326;2024-03-06T06:14:13;3.20;99.90
15749;DHT22;7976;52.526;13.326;2024-03-06T06:16:41;3.20;99.90
15749;DHT22;7976;52.526;13.326;2024-03-06T06:19:08;3.20;99.90
15749;DHT22;7976;52.526;13.326;2024-03-06T06:21:36;3.20;99.90
15749;DHT22;7976;52.526;13.326;2024-03-06T06:24:04;3.20;99.90
15749;DHT22;7976;52.526;13.326;2024-03-06T06:26:31;3.20;99.90
15749;DHT22;7976;52.526;13.326;2024-03-06T06:28:58;3.30;99.90
15749;DHT22;7976;52.526;13.326;2024-03-06T06:31:25;3.30;99.90
15749;DHT22;7976;52.526;13.326;2024-03-06T06:33:53;3.30;99.90
15749;DHT22;7976;52.526;13.326;2024-03-06T06:36:20;3.30;99.90
15749;DHT22;7976;52.526;13.326;2024-03-06T06:38:48;3.30;99.90
15749;DHT22;7976;52.526;13.326;2024-03-06T06:41:17;3.40;99.90
15749;DHT22;7976;52.526;13.326;2024-03-06T06:43:44;3.40;99.90
15749;DHT22;7976;52.526;13.326;2024-03-06T06:46:12;3.40;99.90
15749;DHT22;7976;52.526;13.326;2024-03-06T06:48:39;3.50;99.90
15749;DHT22;7976;52.526;13.326;2024-03-06T06:51:06;3.50;99.90
15749;DHT22;7976;52.526;13.326;2024-03-06T06:53:33;3.50;99.90
15749;DHT22;7976;52.526;13.326;2024-03-06T06:56:02;3.50;99.90
15749;DHT22;7976;52.526;13.326;2024-03-06T06:58:29;3.50;99.90
15749;DHT22;7976;52.526;13.326;2024-03-06T07:00:56;3.50;99.90
15749;DHT22;7976;52.526;13.326;2024-03-06T07:03:23;3.60;99.90
15749;DHT22;7976;52.526;13.326;2024-03-06T07:05:55;3.60;99.90
15749;DHT22;7976;52.526;13.326;2024-03-06T07:08:22;3.60;99.90
15749;DHT22;7976;52.526;13.326;2024-03-06T07:10:49;3.70;99.90
15749;DHT22;7976;52.526;13.326;2024-03-06T07:13:17;3.70;99.90
15749;DHT22;7976;52.526;13.326;2024-03-06T07:15:44;3.80;99.90
15749;DHT22;7976;52.526;13.326;2024-03-06T07:18:11;3.80;99.90
15749;DHT22;7976;52.526;13.326;2024-03-06T07:20:39;3.90;99.90
15749;DHT22;7976;52.526;13.326;2024-03-06T07:23:06;4.00;99.90
15749;DHT22;7976;52.526;13.326;2024-03-06T07:25:33;4.00;99.90
15749;DHT22;7976;52.526;13.326;2024-03-06T07:28:01;4.10;99.90
15749;DHT22;7976;52.526;13.326;2024-03-06T07:30:30;4.10;99.90
15749;DHT22;7976;52.526;13.326;2024-03-06T07:32:57;4.20;99.90
15749;DHT22;7976;52.526;13.326;2024-03-06T07:35:24;4.20;99.90
15749;DHT22;7976;52.526;13.326;2024-03-06T07:37:51;4.30;99.90
15749;DHT22;7976;52.526;13.326;2024-03-06T07:40:18;4.40;99.90
15749;DHT22;7976;52.526;13.326;2024-03-06T07:42:45;4.40;99.90
15749;DHT22;7976;52.526;13.326;2024-03-06T07:45:12;4.50;99.90
15749;DHT22;7976;52.526;13.326;2024-03-06T07:47:40;4.50;99.90
15749;DHT22;7976;52.526;13.326;2024-03-06T07:50:09;4.60;99.90
15749;DHT22;7976;52.526;13.326;2024-03-06T07:52:36;4.60;99.90
15749;DHT22;7976;52.526;13.326;2024-03-06T07:55:04;4.70;99.90
15749;DHT22;7976;52.526;13.326;2024-03-06T07:57:32;4.80;99.90
15749;DHT22;7976;52.526;13.326;2024-03-06T07:59:59;4.90;99.90
15749;DHT22;7976;52.526;13.326;2024-03-06T08:02:25;4.90;99.90
15749;DHT22;7976;52.526;13.326;2024-03-06T08:04:54;5.00;99.90
15749;DHT22;7976;52.526;13.326;2024-03-06T08:07:22;5.10;99.90
15749;DHT22;7976;52.526;13.326;2024-03-06T08:09:48;5.10;99.90
15749;DHT22;7976;52.526;13.326;2024-03-06T08:12:15;5.20;99.90
15749;DHT22;7976;52.526;13.326;2024-03-06T08:14:42;5.30;99.90
15749;DHT22;7976;52.526;13.326;2024-03-06T08:17:10;5.30;99.90
15749;DHT22;7976;52.526;13.326;2024-03-06T08:19:37;5.40;99.90
15749;DHT22;7976;52.526;13.326;2024-03-06T08:22:05;5.50;99.90
15749;DHT22;7976;52.526;13.326;2024-03-06T08:24:32;5.50;99.90
15749;DHT22;7976;52.526;13.326;2024-03-06T08:26:59;5.60;99.90
15749;DHT22;7976;52.526;13.326;2024-03-06T08:29:26;5.60;99.90
15749;DHT22;7976;52.526;13.326;2024-03-06T08:31:53;5.70;99.90
15749;DHT22;7976;52.526;13.326;2024-03-06T08:34:23;5.70;99.90
15749;DHT22;7976;52.526;13.326;2024-03-06T08:36:50;5.80;99.90
15749;DHT22;7976;52.526;13.326;2024-03-06T08:39:18;5.80;99.90
15749;DHT22;7976;52.526;13.326;2024-03-06T08:41:45;5.80;99.90
15749;DHT22;7976;52.526;13.326;2024-03-06T08:44:12;6.00;99.90
15749;DHT22;7976;52.526;13.326;2024-03-06T08:46:39;6.00;99.90
15749;DHT22;7976;52.526;13.326;2024-03-06T08:49:07;6.10;99.90
15749;DHT22;7976;52.526;13.326;2024-03-06T08:51:34;6.10;99.90
15749;DHT22;7976;52.526;13.326;2024-03-06T08:54:01;6.20;99.90
15749;DHT22;7976;52.526;13.326;2024-03-06T08:56:29;6.20;99.90
15749;DHT22;7976;52.526;13.326;2024-03-06T08:58:56;6.20;99.90
15749;DHT22;7976;52.526;13.326;2024-03-06T09:01:23;6.30;99.90
15749;DHT22;7976;52.526;13.326;2024-03-06T09:03:51;6.40;99.90
15749;DHT22;7976;52.526;13.326;2024-03-06T09:06:18;6.50;99.90
15749;DHT22;7976;52.526;13.326;2024-03-06T09:08:44;6.60;99.90
15749;DHT22;7976;52.526;13.326;2024-03-06T09:11:12;6.70;99.90
15749;DHT22;7976;52.526;13.326;2024-03-06T09:13:41;6.90;99.90
15749;DHT22;7976;52.526;13.326;2024-03-06T09:16:08;7.00;99.90
15749;DHT22;7976;52.526;13.326;2024-03-06T09:18:35;7.10;99.90
15749;DHT22;7976;52.526;13.326;2024-03-06T09:21:02;7.10;99.90
15749;DHT22;7976;52.526;13.326;2024-03-06T09:23:29;7.20;99.90
15749;DHT22;7976;52.526;13.326;2024-03-06T09:25:58;7.30;99.90
15749;DHT22;7976;52.526;13.326;2024-03-06T09:28:25;7.40;99.90
15749;DHT22;7976;52.526;13.326;2024-03-06T09:30:53;7.40;99.90
15749;DHT22;7976;52.526;13.326;2024-03-06T09:33:20;7.60;99.90
15749;DHT22;7976;52.526;13.326;2024-03-06T09:35:48;7.70;99.90
15749;DHT22;7976;52.526;13.326;2024-03-06T09:38:15;7.70;99.90
15749;DHT22;7976;52.526;13.326;2024-03-06T09:40:42;7.80;99.90
15749;DHT22;7976;52.526;13.326;2024-03-06T09:43:09;7.90;99.90
15749;DHT22;7976;52.526;13.326;2024-03-06T09:45:36;7.90;99.90
15749;DHT22;7976;52.526;13.326;2024-03-06T09:48:06;7.70;99.90
15749;DHT22;7976;52.526;13.326;2024-03-06T09:50:35;7.40;99.90
15749;DHT22;7976;52.526;13.326;2024-03-06T09:53:08;7.40;99.90
15749;DHT22;7976;52.526;13.326;2024-03-06T09:55:38;7.30;99.90
15749;DHT22;7976;52.526;13.326;2024-03-06T09:58:07;7.30;99.90
15749;DHT22;7976;52.526;13.326;2024-03-06T10:00:35;7.20;99.90
15749;DHT22;7976;52.526;13.326;2024-03-06T10:03:03;7.20;99.90
15749;DHT22;7976;52.526;13.326;2024-03-06T10:05:34;7.10;99.90
15749;DHT22;7976;52.526;13.326;2024-03-06T10:08:01;7.00;99.90
15749;DHT22;7976;52.526;13.326;2024-03-06T10:10:29;6.90;99.90
15749;DHT22;7976;52.526;13.326;2024-03-06T10:12:57;6.90;99.90
15749;DHT22;7976;52.526;13.326;2024-03-06T10:15:25;6.90;99.90
15749;DHT22;7976;52.526;13.326;2024-03-06T10:18:11;6.80;99.90
15749;DHT22;7976;52.526;13.326;2024-03-06T10:20:40;6.90;99.90
15749;DHT22;7976;52.526;13.326;2024-03-06T10:23:09;7.00;99.90
15749;DHT22;7976;52.526;13.326;2024-03-06T10:25:37;7.30;99.90
15749;DHT22;7976;52.526;13.326;2024-03-06T10:28:05;7.40;99.90
15749;DHT22;7976;52.526;13.326;2024-03-06T10:30:33;7.60;99.90
15749;DHT22;7976;52.526;13.326;2024-03-06T10:33:02;7.70;99.90
15749;DHT22;7976;52.526;13.326;2024-03-06T10:35:31;7.80;99.90
15749;DHT22;7976;52.526;13.326;2024-03-06T10:38:00;7.90;99.90
15749;DHT22;7976;52.526;13.326;2024-03-06T10:40:31;7.90;99.90
15749;DHT22;7976;52.526;13.326;2024-03-06T10:42:59;7.80;99.90
15749;DHT22;7976;52.526;13.326;2024-03-06T10:45:34;7.70;99.90
15749;DHT22;7976;52.526;13.326;2024-03-06T10:48:08;7.60;99.90
15749;DHT22;7976;52.526;13.326;2024-03-06T10:50:40;7.60;99.90
15749;DHT22;7976;52.526;13.326;2024-03-06T10:53:09;7.80;99.90
15749;DHT22;7976;52.526;13.326;2024-03-06T10:55:38;7.90;99.90
15749;DHT22;7976;52.526;13.326;2024-03-06T10:58:06;8.10;99.90
15749;DHT22;7976;52.526;13.326;2024-03-06T11:00:37;8.20;99.90
15749;DHT22;7976;52.526;13.326;2024-03-06T11:03:06;8.20;99.90
15749;DHT22;7976;52.526;13.326;2024-03-06T11:05:35;8.30;99.90
15749;DHT22;7976;52.526;13.326;2024-03-06T11:08:06;8.30;99.90
15749;DHT22;7976;52.526;13.326;2024-03-06T11:10:36;8.40;99.90
15749;DHT22;7976;52.526;13.326;2024-03-06T11:13:09;8.50;99.90
15749;DHT22;7976;52.526;13.326;2024-03-06T11:15:50;8.70;99.90
15749;DHT22;7976;52.526;13.326;2024-03-06T11:18:45;8.80;99.90
15749;DHT22;7976;52.526;13.326;2024-03-06T11:21:28;8.90;99.90
15749;DHT22;7976;52.526;13.326;2024-03-06T11:24:18;8.90;99.90
15749;DHT22;7976;52.526;13.326;2024-03-06T11:26:47;8.90;99.90
15749;DHT22;7976;52.526;13.326;2024-03-06T11:29:21;8.80;99.90
15749;DHT22;7976;52.526;13.326;2024-03-06T11:32:00;8.70;99.90
15749;DHT22;7976;52.526;13.326;2024-03-06T11:34:29;8.60;99.90
15749;DHT22;7976;52.526;13.326;2024-03-06T11:36:57;8.50;99.90
15749;DHT22;7976;52.526;13.326;2024-03-06T11:39:28;8.30;99.90
15749;DHT22;7976;52.526;13.326;2024-03-06T11:41:56;8.10;99.90
15749;DHT22;7976;52.526;13.326;2024-03-06T11:44:24;8.00;99.90
15749;DHT22;7976;52.526;13.326;2024-03-06T11:46:57;8.00;99.90
15749;DHT22;7976;52.526;13.326;2024-03-06T11:49:27;8.00;99.90
15749;DHT22;7976;52.526;13.326;2024-03-06T11:51:59;8.30;99.90
15749;DHT22;7976;52.526;13.326;2024-03-06T11:54:29;8.60;99.90
15749;DHT22;7976;52.526;13.326;2024-03-06T11:56:58;8.80;99.90
15749;DHT22;7976;52.526;13.326;2024-03-06T11:59:27;8.80;99.90
15749;DHT22;7976;52.526;13.326;2024-03-06T12:01:57;8.70;99.90
15749;DHT22;7976;52.526;13.326;2024-03-06T12:04:28;8.50;99.90
15749;DHT22;7976;52.526;13.326;2024-03-06T12:07:05;8.30;99.90
15749;DHT22;7976;52.526;13.326;2024-03-06T12:09:37;8.20;99.90
15749;DHT22;7976;52.526;13.326;2024-03-06T12:12:06;8.20;99.90
15749;DHT22;7976;52.526;13.326;2024-03-06T12:14:36;8.30;99.90
15749;DHT22;7976;52.526;13.326;2024-03-06T12:17:13;8.30;99.90
15749;DHT22;7976;52.526;13.326;2024-03-06T12:19:44;8.40;99.90
15749;DHT22;7976;52.526;13.326;2024-03-06T12:22:13;8.40;99.90
15749;DHT22;7976;52.526;13.326;2024-03-06T12:24:42;8.40;99.90
15749;DHT22;7976;52.526;13.326;2024-03-06T12:27:09;8.50;99.90
15749;DHT22;7976;52.526;13.326;2024-03-06T12:29:38;8.70;99.90
15749;DHT22;7976;52.526;13.326;2024-03-06T12:32:16;9.00;99.90
15749;DHT22;7976;52.526;13.326;2024-03-06T12:34:44;9.10;99.90
15749;DHT22;7976;52.526;13.326;2024-03-06T12:37:11;9.10;99.90
15749;DHT22;7976;52.526;13.326;2024-03-06T12:39:39;9.10;99.90
15749;DHT22;7976;52.526;13.326;2024-03-06T12:42:08;9.00;99.90
15749;DHT22;7976;52.526;13.326;2024-03-06T12:44:37;9.10;99.90
15749;DHT22;7976;52.526;13.326;2024-03-06T12:47:06;9.30;99.90
15749;DHT22;7976;52.526;13.326;2024-03-06T12:49:37;9.30;99.90
15749;DHT22;7976;52.526;13.326;2024-03-06T12:52:04;9.40;99.90
15749;DHT22;7976;52.526;13.326;2024-03-06T12:54:31;9.50;99.90
15749;DHT22;7976;52.526;13.326;2024-03-06T12:56:58;9.50;99.90
15749;DHT22;7976;52.526;13.326;2024-03-06T12:59:27;9.40;99.90
15749;DHT22;7976;52.526;13.326;2024-03-06T13:01:53;9.30;99.90
15749;DHT22;7976;52.526;13.326;2024-03-06T13:04:21;9.10;99.90
15749;DHT22;7976;52.526;13.326;2024-03-06T13:06:48;9.00;99.90
15749;DHT22;7976;52.526;13.326;2024-03-06T13:09:14;9.10;99.90
15749;DHT22;7976;52.526;13.326;2024-03-06T13:11:41;9.20;99.90
15749;DHT22;7976;52.526;13.326;2024-03-06T13:14:09;9.40;99.90
15749;DHT22;7976;52.526;13.326;2024-03-06T13:16:39;9.40;99.90
15749;DHT22;7976;52.526;13.326;2024-03-06T13:19:06;9.30;99.90
15749;DHT22;7976;52.526;13.326;2024-03-06T13:21:33;9.20;99.90
15749;DHT22;7976;52.526;13.326;2024-03-06T13:24:00;9.10;99.90
15749;DHT22;7976;52.526;13.326;2024-03-06T13:26:27;9.10;99.90
15749;DHT22;7976;52.526;13.326;2024-03-06T13:28:54;9.00;99.90
15749;DHT22;7976;52.526;13.326;2024-03-06T13:31:20;9.00;99.90
15749;DHT22;7976;52.526;13.326;2024-03-06T13:33:49;9.10;99.90
15749;DHT22;7976;52.526;13.326;2024-03-06T13:36:16;9.20;99.90
15749;DHT22;7976;52.526;13.326;2024-03-06T13:38:43;9.20;99.90
15749;DHT22;7976;52.526;13.326;2024-03-06T13:41:10;9.30;99.90
15749;DHT22;7976;52.526;13.326;2024-03-06T13:43:37;9.20;99.90
15749;DHT22;7976;52.526;13.326;2024-03-06T13:46:04;9.10;99.90
15749;DHT22;7976;52.526;13.326;2024-03-06T13:48:31;9.00;99.90
15749;DHT22;7976;52.526;13.326;2024-03-06T13:50:59;9.00;99.90
15749;DHT22;7976;52.526;13.326;2024-03-06T13:53:26;9.00;99.90
15749;DHT22;7976;52.526;13.326;2024-03-06T13:55:53;9.00;99.90
15749;DHT22;7976;52.526;13.326;2024-03-06T13:58:20;9.10;99.90
15749;DHT22;7976;52.526;13.326;2024-03-06T14:00:47;9.00;99.90
15749;DHT22;7976;52.526;13.326;2024-03-06T14:03:14;9.00;99.90
15749;DHT22;7976;52.526;13.326;2024-03-06T14:05:41;9.10;99.90
15749;DHT22;7976;52.526;13.326;2024-03-06T14:08:10;9.10;99.90
15749;DHT22;7976;52.526;13.326;2024-03-06T14:10:38;9.00;99.90
15749;DHT22;7976;52.526;13.326;2024-03-06T14:13:06;9.00;99.90
15749;DHT22;7976;52.526;13.326;2024-03-06T14:15:34;8.90;99.90
15749;DHT22;7976;52.526;13.326;2024-03-06T14:18:00;8.90;99.90
15749;DHT22;7976;52.526;13.326;2024-03-06T14:20:27;8.90;99.90
15749;DHT22;7976;52.526;13.326;2024-03-06T14:22:54;8.90;99.90
15749;DHT22;7976;52.526;13.326;2024-03-06T14:25:23;8.90;99.90
15749;DHT22;7976;52.526;13.326;2024-03-06T14:27:50;8.80;99.90
15749;DHT22;7976;52.526;13.326;2024-03-06T14:30:17;8.70;99.90
15749;DHT22;7976;52.526;13.326;2024-03-06T14:32:45;8.70;99.90
15749;DHT22;7976;52.526;13.326;2024-03-06T14:35:12;8.70;99.90
15749;DHT22;7976;52.526;13.326;2024-03-06T14:37:39;8.60;99.90
15749;DHT22;7976;52.526;13.326;2024-03-06T14:40:07;8.60;99.90
15749;DHT22;7976;52.526;13.326;2024-03-06T14:42:36;8.50;99.90
15749;DHT22;7976;52.526;13.326;2024-03-06T14:45:03;8.50;99.90
15749;DHT22;7976;52.526;13.326;2024-03-06T14:47:31;8.40;99.90
15749;DHT22;7976;52.526;13.326;2024-03-06T14:49:58;8.40;99.90
15749;DHT22;7976;52.526;13.326;2024-03-06T14:52:25;8.40;99.90
15749;DHT22;7976;52.526;13.326;2024-03-06T14:54:52;8.50;99.90
15749;DHT22;7976;52.526;13.326;2024-03-06T14:57:19;8.40;99.90
15749;DHT22;7976;52.526;13.326;2024-03-06T14:59:48;8.40;99.90
15749;DHT22;7976;52.526;13.326;2024-03-06T15:02:15;8.40;99.90
15749;DHT22;7976;52.526;13.326;2024-03-06T15:04:42;8.40;99.90
15749;DHT22;7976;52.526;13.326;2024-03-06T15:07:09;8.40;99.90
15749;DHT22;7976;52.526;13.326;2024-03-06T15:09:36;8.50;99.90
15749;DHT22;7976;52.526;13.326;2024-03-06T15:12:03;8.50;99.90
15749;DHT22;7976;52.526;13.326;2024-03-06T15:14:30;8.60;99.90
15749;DHT22;7976;52.526;13.326;2024-03-06T15:16:59;8.60;99.90
15749;DHT22;7976;52.526;13.326;2024-03-06T15:19:26;8.60;99.90
15749;DHT22;7976;52.526;13.326;2024-03-06T15:21:52;8.60;99.90
15749;DHT22;7976;52.526;13.326;2024-03-06T15:24:20;8.50;99.90
15749;DHT22;7976;52.526;13.326;2024-03-06T15:26:47;8.60;99.90
15749;DHT22;7976;52.526;13.326;2024-03-06T15:29:14;8.60;99.90
15749;DHT22;7976;52.526;13.326;2024-03-06T15:31:40;8.60;99.90
15749;DHT22;7976;52.526;13.326;2024-03-06T15:34:09;8.60;99.90
15749;DHT22;7976;52.526;13.326;2024-03-06T15:36:36;8.60;99.90
15749;DHT22;7976;52.526;13.326;2024-03-06T15:39:03;8.60;99.90
15749;DHT22;7976;52.526;13.326;2024-03-06T15:41:32;8.60;99.90
15749;DHT22;7976;52.526;13.326;2024-03-06T15:43:59;8.50;99.90
15749;DHT22;7976;52.526;13.326;2024-03-06T15:46:28;8.50;99.90
15749;DHT22;7976;52.526;13.326;2024-03-06T15:48:56;8.50;99.90